createdAt,value
2023-02-25T00:00:01.158Z,67.37
2023-02-25T00:02:33.645Z,67.18
2023-02-25T00:05:07.354Z,67.05
2023-02-25T00:07:40.348Z,67.16
2023-02-25T00:10:15.657Z,67.43
2023-02-25T00:12:48.110Z,67.32
2023-02-25T00:15:20.513Z,67.24
2023-02-25T00:17:53.032Z,67.23
2023-02-25T00:20:26.837Z,67.25
2023-02-25T00:22:59.107Z,67.33
2023-02-25T00:25:31.572Z,67.42
2023-02-25T00:28:06.313Z,67.56
2023-02-25T00:30:39.607Z,67.48
2023-02-25T00:33:12.283Z,67.54
2023-02-25T00:35:44.685Z,67.41
2023-02-25T00:38:17.533Z,67.62
2023-02-25T00:40:49.723Z,67.61
2023-02-25T00:43:22.242Z,67.67
2023-02-25T00:45:54.681Z,67.68
2023-02-25T00:48:27.126Z,67.45
2023-02-25T00:50:59.633Z,67.69
2023-02-25T00:53:32.239Z,67.70
2023-02-25T00:56:06.080Z,67.80
2023-02-25T00:58:40.085Z,67.86
2023-02-25T01:01:22.219Z,67.70
2023-02-25T01:03:57.465Z,67.82
2023-02-25T01:06:32.640Z,67.84
2023-02-25T01:09:06.863Z,67.71
2023-02-25T01:11:39.521Z,67.66
2023-02-25T01:14:15.811Z,67.68
2023-02-25T01:16:49.493Z,67.81
2023-02-25T01:19:24.462Z,67.60
2023-02-25T01:21:59.850Z,67.74
2023-02-25T01:24:36.137Z,67.97
2023-02-25T01:27:08.971Z,67.77
2023-02-25T01:29:42.686Z,67.83
2023-02-25T01:32:18.096Z,67.57
2023-02-25T01:34:50.737Z,67.77
2023-02-25T01:37:23.081Z,67.62
2023-02-25T01:39:55.574Z,67.83
2023-02-25T01:42:28.027Z,67.65
2023-02-25T01:45:29.646Z,67.74
2023-02-25T01:48:07.580Z,67.54
2023-02-25T01:50:45.538Z,67.63
2023-02-25T01:53:22.760Z,67.59
2023-02-25T01:55:56.260Z,67.38
2023-02-25T01:58:30.265Z,67.87
2023-02-25T02:01:03.246Z,67.67
2023-02-25T02:03:39.215Z,67.55
2023-02-25T02:06:12.496Z,67.64
2023-02-25T02:08:45.799Z,67.78
2023-02-25T02:11:18.404Z,67.50
2023-02-25T02:13:55.261Z,67.67
2023-02-25T02:16:45.444Z,67.84
2023-02-25T02:19:32.726Z,67.68
2023-02-25T02:22:12.815Z,67.71
2023-02-25T02:25:16.225Z,67.92
2023-02-25T02:28:20.372Z,67.77
2023-02-25T02:31:21.414Z,67.70
2023-02-25T02:34:02.063Z,67.62
2023-02-25T02:36:48.367Z,67.63
2023-02-25T02:39:27.142Z,67.71
2023-02-25T02:42:10.543Z,67.61
2023-02-25T02:44:50.249Z,67.58
2023-02-25T02:47:29.992Z,67.75
2023-02-25T02:50:07.487Z,67.52
2023-02-25T02:52:43.525Z,67.82
2023-02-25T02:55:23.369Z,67.86
2023-02-25T02:58:01.190Z,67.68
2023-02-25T03:00:39.392Z,67.67
2023-02-25T03:03:15.952Z,67.69
2023-02-25T03:05:52.316Z,67.93
2023-02-25T03:08:30.400Z,68.01
2023-02-25T03:11:02.702Z,68.04
2023-02-25T03:13:34.983Z,67.43
2023-02-25T03:16:11.995Z,67.67
2023-02-25T03:18:50.515Z,67.61
2023-02-25T03:21:27.226Z,67.68
2023-02-25T03:24:00.743Z,67.59
2023-02-25T03:26:34.819Z,67.77
2023-02-25T03:29:07.351Z,67.71
2023-02-25T03:31:45.942Z,67.73
2023-02-25T03:34:22.549Z,67.72
2023-02-25T03:37:00.062Z,67.55
2023-02-25T03:39:37.497Z,67.87
2023-02-25T03:42:14.898Z,67.88
2023-02-25T03:44:51.797Z,67.86
2023-02-25T03:47:28.796Z,67.56
2023-02-25T03:50:05.174Z,67.33
2023-02-25T03:52:37.702Z,67.60
2023-02-25T03:55:13.160Z,67.58
2023-02-25T03:57:47.981Z,67.72
2023-02-25T04:00:25.528Z,67.51
2023-02-25T04:02:58.058Z,67.63
2023-02-25T04:05:31.024Z,67.59
2023-02-25T04:08:03.617Z,67.37
2023-02-25T04:10:36.030Z,67.65
2023-02-25T04:13:08.357Z,67.76
2023-02-25T04:15:40.893Z,67.70
2023-02-25T04:18:13.358Z,67.77
2023-02-25T04:20:46.092Z,67.88
2023-02-25T04:23:18.444Z,67.98
2023-02-25T04:25:50.729Z,67.71
2023-02-25T04:28:23.254Z,67.46
2023-02-25T04:30:55.594Z,67.69
2023-02-25T04:33:28.154Z,67.60
2023-02-25T04:36:00.683Z,67.74
2023-02-25T04:38:32.945Z,67.84
2023-02-25T04:41:05.423Z,67.52
2023-02-25T04:43:37.811Z,67.83
2023-02-25T04:46:11.520Z,67.45
2023-02-25T04:48:43.805Z,67.63
2023-02-25T04:51:17.821Z,67.64
2023-02-25T04:53:50.600Z,67.94
2023-02-25T04:56:23.183Z,67.81
2023-02-25T04:58:55.922Z,67.82
2023-02-25T05:01:28.690Z,67.79
2023-02-25T05:04:01.937Z,67.72
2023-02-25T05:06:34.949Z,67.64
2023-02-25T05:09:09.371Z,68.00
2023-02-25T05:11:42.696Z,67.90
2023-02-25T05:14:15.030Z,67.83
2023-02-25T05:16:47.695Z,67.97
2023-02-25T05:19:22.854Z,67.83
2023-02-25T05:21:55.892Z,67.91
2023-02-25T05:24:28.653Z,67.93
2023-02-25T05:27:08.556Z,67.74
2023-02-25T05:29:41.066Z,67.91
2023-02-25T05:32:13.607Z,67.85
2023-02-25T05:34:45.974Z,67.84
2023-02-25T05:37:18.508Z,68.08
2023-02-25T05:39:50.890Z,68.01
2023-02-25T05:42:23.345Z,67.84
2023-02-25T05:44:55.757Z,68.24
2023-02-25T05:47:28.371Z,67.70
2023-02-25T05:50:00.711Z,67.86
2023-02-25T05:52:33.046Z,67.56
2023-02-25T05:55:05.641Z,67.58
2023-02-25T05:57:37.937Z,67.66
2023-02-25T06:00:15.221Z,67.73
2023-02-25T06:02:47.598Z,67.74
2023-02-25T06:05:20.184Z,68.09
2023-02-25T06:07:52.451Z,67.84
2023-02-25T06:10:25.005Z,68.17
2023-02-25T06:12:57.459Z,68.21
2023-02-25T06:15:29.715Z,67.82
2023-02-25T06:18:02.181Z,67.75
2023-02-25T06:20:35.335Z,67.85
2023-02-25T06:23:07.774Z,67.77
2023-02-25T06:25:40.059Z,67.65
2023-02-25T06:28:12.953Z,67.65
2023-02-25T06:30:45.389Z,67.30
2023-02-25T06:33:18.386Z,67.20
2023-02-25T06:35:55.237Z,67.46
2023-02-25T06:38:27.561Z,67.19
2023-02-25T06:40:59.811Z,67.36
2023-02-25T06:43:32.253Z,67.32
2023-02-25T06:46:07.387Z,67.06
2023-02-25T06:48:39.831Z,66.92
2023-02-25T06:51:13.059Z,67.03
2023-02-25T06:53:47.745Z,66.78
2023-02-25T06:56:22.257Z,66.30
2023-02-25T06:58:55.653Z,66.21
2023-02-25T07:01:28.635Z,66.28
2023-02-25T07:04:01.125Z,66.51
2023-02-25T07:06:33.548Z,66.25
2023-02-25T07:09:05.897Z,66.19
2023-02-25T07:11:38.962Z,66.20
2023-02-25T07:14:12.561Z,66.27
2023-02-25T07:16:44.932Z,65.95
2023-02-25T07:19:17.466Z,66.05
2023-02-25T07:21:50.309Z,65.71
2023-02-25T07:24:23.421Z,65.57
2023-02-25T07:26:56.744Z,65.59
2023-02-25T07:29:29.047Z,65.45
2023-02-25T07:32:01.699Z,65.36
2023-02-25T07:34:34.598Z,65.34
2023-02-25T07:37:06.960Z,65.46
2023-02-25T07:39:39.460Z,65.21
2023-02-25T07:42:11.726Z,65.07
2023-02-25T07:44:44.128Z,65.20
2023-02-25T07:47:16.392Z,64.96
2023-02-25T07:49:49.049Z,65.00
2023-02-25T07:52:21.381Z,65.12
2023-02-25T07:54:53.784Z,65.14
2023-02-25T07:57:26.076Z,64.90
2023-02-25T07:59:59.309Z,64.64
2023-02-25T08:02:31.796Z,64.70
2023-02-25T08:05:04.401Z,64.34
2023-02-25T08:07:36.852Z,64.63
2023-02-25T08:10:11.056Z,64.49
2023-02-25T08:12:43.543Z,64.41
2023-02-25T08:15:16.220Z,64.28
2023-02-25T08:17:51.193Z,64.09
2023-02-25T08:20:24.406Z,64.17
2023-02-25T08:22:57.208Z,64.10
2023-02-25T08:25:29.681Z,63.65
2023-02-25T08:28:04.608Z,63.47
2023-02-25T08:30:37.433Z,63.68
2023-02-25T08:33:09.700Z,63.36
2023-02-25T08:35:42.162Z,63.06
2023-02-25T08:38:14.576Z,63.02
2023-02-25T08:40:47.287Z,63.11
2023-02-25T08:43:19.692Z,63.08
2023-02-25T08:45:52.084Z,63.01
2023-02-25T08:48:24.486Z,62.76
2023-02-25T08:50:56.936Z,62.88
2023-02-25T08:53:29.265Z,62.71
2023-02-25T08:56:05.329Z,62.78
2023-02-25T08:58:38.367Z,62.70
2023-02-25T09:01:13.251Z,62.74
2023-02-25T09:03:53.067Z,62.88
2023-02-25T09:06:27.958Z,62.76
2023-02-25T09:09:00.389Z,62.78
2023-02-25T09:11:33.796Z,62.63
2023-02-25T09:14:06.164Z,62.54
2023-02-25T09:16:38.992Z,62.48
2023-02-25T09:19:15.831Z,62.58
2023-02-25T09:21:49.442Z,62.69
2023-02-25T09:24:21.941Z,62.78
2023-02-25T09:26:54.420Z,62.87
2023-02-25T09:29:26.738Z,62.69
2023-02-25T09:31:59.421Z,62.95
2023-02-25T09:34:34.025Z,62.88
2023-02-25T09:37:09.683Z,62.58
2023-02-25T09:39:43.201Z,62.69
2023-02-25T09:42:20.855Z,62.86
2023-02-25T09:44:57.713Z,62.82
2023-02-25T09:47:35.011Z,62.75
2023-02-25T09:50:13.216Z,62.73
2023-02-25T09:52:49.373Z,62.73
2023-02-25T09:55:24.334Z,62.71
2023-02-25T09:58:04.277Z,62.79
2023-02-25T10:00:43.486Z,62.79
2023-02-25T10:03:23.760Z,62.93
2023-02-25T10:06:04.609Z,62.87
2023-02-25T10:08:45.021Z,62.73
2023-02-25T10:11:22.980Z,62.78
2023-02-25T10:14:03.265Z,62.81
2023-02-25T10:16:46.777Z,62.88
2023-02-25T10:19:33.036Z,62.91
2023-02-25T10:22:17.439Z,62.70
2023-02-25T10:24:56.960Z,62.88
2023-02-25T10:27:33.228Z,62.82
2023-02-25T10:30:14.184Z,62.76
2023-02-25T10:32:49.216Z,62.76
2023-02-25T10:35:26.309Z,62.90
2023-02-25T10:37:58.763Z,62.85
2023-02-25T10:40:31.221Z,62.81
2023-02-25T10:43:20.333Z,62.93
2023-02-25T10:46:01.646Z,63.03
2023-02-25T10:48:34.783Z,62.96
2023-02-25T10:51:12.936Z,62.89
2023-02-25T10:54:05.371Z,62.91
2023-02-25T10:56:44.475Z,63.04
2023-02-25T10:59:31.419Z,62.82
2023-02-25T11:02:06.783Z,62.84
2023-02-25T11:04:40.579Z,63.00
2023-02-25T11:07:31.986Z,62.98
2023-02-25T11:10:18.170Z,62.75
2023-02-25T11:12:53.150Z,62.83
2023-02-25T11:15:44.749Z,62.96
2023-02-25T11:18:24.990Z,63.06
2023-02-25T11:21:00.390Z,63.01
2023-02-25T11:23:36.182Z,63.11
2023-02-25T11:26:09.931Z,63.12
2023-02-25T11:28:48.610Z,63.13
2023-02-25T11:31:24.976Z,63.13
2023-02-25T11:34:01.394Z,63.14
2023-02-25T11:36:36.568Z,63.22
2023-02-25T11:39:18.180Z,63.32
2023-02-25T11:41:52.561Z,63.32
2023-02-25T11:44:29.004Z,63.41
2023-02-25T11:47:22.943Z,63.41
2023-02-25T11:50:15.869Z,63.48
2023-02-25T11:52:58.397Z,63.54
2023-02-25T11:55:49.142Z,63.68
2023-02-25T11:58:31.477Z,63.78
2023-02-25T12:01:08.458Z,63.95
2023-02-25T12:04:02.734Z,63.97
2023-02-25T12:06:54.887Z,64.01
2023-02-25T12:10:06.207Z,64.06
2023-02-25T12:13:07.152Z,64.21
2023-02-25T12:16:27.165Z,64.07
2023-02-25T12:19:27.071Z,64.23
2023-02-25T12:22:50.962Z,64.32
2023-02-25T12:25:39.153Z,64.20
2023-02-25T12:28:30.674Z,64.34
2023-02-25T12:31:23.278Z,64.23
2023-02-25T12:34:13.987Z,64.38
2023-02-25T12:37:05.567Z,64.41
2023-02-25T12:40:05.587Z,64.43
2023-02-25T12:42:53.594Z,64.49
2023-02-25T12:45:43.137Z,64.49
2023-02-25T12:48:42.907Z,64.33
2023-02-25T12:51:46.949Z,64.35
2023-02-25T12:54:34.754Z,64.35
2023-02-25T12:57:38.051Z,64.25
2023-02-25T13:00:43.872Z,64.30
2023-02-25T13:03:50.135Z,64.27
2023-02-25T13:06:56.536Z,64.29
2023-02-25T13:09:52.364Z,64.22
2023-02-25T13:12:38.569Z,64.15
2023-02-25T13:15:13.242Z,64.28
2023-02-25T13:18:11.259Z,64.27
2023-02-25T13:20:58.174Z,64.21
2023-02-25T13:23:58.209Z,64.13
2023-02-25T13:26:57.101Z,64.14
2023-02-25T13:29:41.122Z,64.14
2023-02-25T13:32:28.070Z,64.12
2023-02-25T13:35:17.193Z,64.14
2023-02-25T13:37:59.773Z,64.19
2023-02-25T13:41:00.361Z,64.15
2023-02-25T13:43:58.976Z,63.95
2023-02-25T13:47:05.620Z,63.92
2023-02-25T13:50:03.974Z,64.11
2023-02-25T13:52:45.351Z,64.02
2023-02-25T13:55:59.980Z,63.95
2023-02-25T13:58:56.997Z,63.98
2023-02-25T14:02:11.364Z,64.04
2023-02-25T14:05:05.785Z,63.89
2023-02-25T14:08:10.214Z,63.77
2023-02-25T14:10:52.954Z,63.81
2023-02-25T14:14:07.837Z,63.86
2023-02-25T14:16:52.408Z,63.70
2023-02-25T14:19:41.560Z,63.57
2023-02-25T14:22:29.316Z,63.69
2023-02-25T14:25:15.911Z,63.69
2023-02-25T14:27:56.343Z,63.66
2023-02-25T14:30:39.930Z,63.53
2023-02-25T14:33:37.081Z,63.62
2023-02-25T14:36:26.771Z,63.57
2023-02-25T14:39:27.793Z,63.63
2023-02-25T14:42:14.213Z,63.53
2023-02-25T14:44:54.940Z,63.41
2023-02-25T14:47:31.432Z,63.37
2023-02-25T14:50:13.885Z,63.56
2023-02-25T14:53:16.829Z,63.41
2023-02-25T14:56:27.441Z,63.44
2023-02-25T14:59:26.202Z,63.33
2023-02-25T15:02:37.494Z,63.38
2023-02-25T15:05:39.788Z,63.32
2023-02-25T15:08:47.218Z,63.35
2023-02-25T15:11:44.237Z,63.34
2023-02-25T15:14:43.441Z,63.18
2023-02-25T15:18:05.830Z,63.21
2023-02-25T15:20:41.444Z,63.22
2023-02-25T15:23:13.050Z,63.24
2023-02-25T15:25:53.385Z,63.30
2023-02-25T15:28:41.333Z,63.28
2023-02-25T15:31:30.083Z,63.31
2023-02-25T15:34:35.232Z,63.37
2023-02-25T15:37:30.335Z,63.31
2023-02-25T15:40:27.084Z,63.48
2023-02-25T15:42:58.713Z,63.43
2023-02-25T15:45:41.234Z,63.37
2023-02-25T15:48:35.454Z,63.25
2023-02-25T15:51:14.775Z,63.43
2023-02-25T15:53:50.438Z,63.39
2023-02-25T15:56:32.384Z,63.49
2023-02-25T15:59:04.884Z,63.37
2023-02-25T16:01:46.141Z,63.59
2023-02-25T16:04:46.499Z,63.59
2023-02-25T16:07:22.182Z,63.54
2023-02-25T16:09:59.027Z,63.68
2023-02-25T16:12:32.576Z,63.77
2023-02-25T16:15:06.090Z,63.83
2023-02-25T16:17:40.050Z,63.78
2023-02-25T16:20:20.256Z,63.67
2023-02-25T16:22:59.571Z,63.80
2023-02-25T16:25:40.151Z,63.83
2023-02-25T16:28:21.976Z,63.82
2023-02-25T16:31:02.403Z,63.79
2023-02-25T16:33:41.731Z,63.88
2023-02-25T16:36:23.567Z,64.00
2023-02-25T16:39:00.591Z,64.02
2023-02-25T16:41:38.613Z,64.00
2023-02-25T16:44:18.469Z,64.02
2023-02-25T16:46:54.972Z,63.88
2023-02-25T16:49:32.856Z,63.92
2023-02-25T16:52:05.672Z,64.01
2023-02-25T16:54:41.206Z,64.10
2023-02-25T16:57:24.775Z,64.01
2023-02-25T17:00:15.644Z,63.95
2023-02-25T17:02:50.531Z,64.05
2023-02-25T17:05:30.258Z,64.14
2023-02-25T17:08:04.934Z,64.15
2023-02-25T17:10:46.618Z,64.28
2023-02-25T17:13:29.167Z,64.31
2023-02-25T17:16:03.942Z,64.24
2023-02-25T17:18:43.205Z,64.26
2023-02-25T17:21:24.093Z,64.22
2023-02-25T17:23:57.721Z,64.16
2023-02-25T17:26:31.493Z,64.29
2023-02-25T17:29:11.081Z,64.28
2023-02-25T17:31:48.693Z,64.35
2023-02-25T17:34:27.261Z,64.42
2023-02-25T17:37:03.912Z,64.39
2023-02-25T17:39:37.100Z,64.33
2023-02-25T17:42:33.565Z,64.37
2023-02-25T17:45:08.678Z,64.45
2023-02-25T17:47:44.841Z,64.44
2023-02-25T17:50:29.894Z,64.56
2023-02-25T17:53:02.601Z,64.54
2023-02-25T17:55:37.444Z,64.52
2023-02-25T17:58:21.242Z,64.65
2023-02-25T18:01:04.838Z,64.57
2023-02-25T18:03:47.840Z,64.65
2023-02-25T18:06:44.862Z,64.64
2023-02-25T18:09:39.220Z,64.58
2023-02-25T18:12:21.417Z,64.83
2023-02-25T18:14:58.265Z,64.90
2023-02-25T18:17:33.104Z,64.92
2023-02-25T18:20:09.753Z,64.78
2023-02-25T18:22:48.291Z,64.83
2023-02-25T18:25:35.172Z,64.84
2023-02-25T18:28:12.979Z,64.90
2023-02-25T18:30:46.333Z,64.90
2023-02-25T18:33:19.304Z,65.05
2023-02-25T18:35:53.720Z,65.08
2023-02-25T18:38:28.186Z,65.10
2023-02-25T18:41:02.930Z,65.09
2023-02-25T18:43:40.157Z,65.18
2023-02-25T18:46:13.457Z,65.14
2023-02-25T18:48:45.842Z,65.23
2023-02-25T18:51:18.204Z,65.34
2023-02-25T18:53:50.605Z,65.37
2023-02-25T18:56:23.459Z,65.46
2023-02-25T18:58:57.610Z,65.42
2023-02-25T19:01:33.943Z,65.53
2023-02-25T19:04:06.262Z,65.48
2023-02-25T19:06:38.514Z,65.50
2023-02-25T19:09:11.471Z,65.53
2023-02-25T19:11:44.050Z,65.67
2023-02-25T19:14:21.177Z,65.79
2023-02-25T19:16:53.863Z,65.74
2023-02-25T19:19:27.281Z,65.88
2023-02-25T19:22:00.233Z,65.84
2023-02-25T19:24:32.682Z,65.86
2023-02-25T19:27:05.047Z,65.85
2023-02-25T19:29:37.353Z,65.97
2023-02-25T19:32:09.835Z,65.87
2023-02-25T19:34:42.827Z,66.00
2023-02-25T19:37:16.494Z,65.99
2023-02-25T19:39:49.114Z,66.01
2023-02-25T19:42:21.443Z,66.07
2023-02-25T19:44:53.970Z,66.11
2023-02-25T19:47:26.445Z,66.04
2023-02-25T19:49:58.734Z,65.96
2023-02-25T19:52:33.408Z,66.09
2023-02-25T19:55:06.564Z,65.94
2023-02-25T19:57:39.018Z,66.10
2023-02-25T20:00:15.979Z,66.09
2023-02-25T20:02:48.857Z,66.13
2023-02-25T20:05:22.445Z,66.08
2023-02-25T20:07:54.909Z,66.00
2023-02-25T20:10:27.336Z,65.95
2023-02-25T20:12:59.712Z,66.09
2023-02-25T20:15:32.149Z,66.03
2023-02-25T20:18:04.663Z,66.03
2023-02-25T20:20:37.263Z,66.18
2023-02-25T20:23:09.551Z,66.04
2023-02-25T20:25:42.552Z,66.15
2023-02-25T20:28:14.915Z,66.06
2023-02-25T20:30:47.346Z,66.17
2023-02-25T20:33:19.860Z,66.25
2023-02-25T20:35:52.643Z,66.10
2023-02-25T20:38:33.723Z,66.29
2023-02-25T20:41:07.041Z,66.28
2023-02-25T20:43:39.807Z,66.43
2023-02-25T20:46:22.520Z,66.44
2023-02-25T20:48:55.628Z,66.37
2023-02-25T20:51:28.777Z,66.42
2023-02-25T20:54:03.878Z,66.45
2023-02-25T20:56:36.173Z,66.47
2023-02-25T20:59:09.350Z,66.36
2023-02-25T21:01:42.215Z,66.49
2023-02-25T21:04:15.167Z,66.65
2023-02-25T21:06:47.480Z,66.68
2023-02-25T21:09:19.968Z,66.66
2023-02-25T21:11:52.373Z,66.77
2023-02-25T21:14:24.960Z,66.82
2023-02-25T21:16:57.456Z,66.84
2023-02-25T21:19:30.776Z,66.91
2023-02-25T21:22:04.892Z,66.87
2023-02-25T21:24:37.561Z,66.84
2023-02-25T21:27:09.889Z,66.91
2023-02-25T21:29:42.234Z,66.91
2023-02-25T21:32:14.646Z,66.89
2023-02-25T21:34:46.900Z,66.89
2023-02-25T21:37:19.200Z,66.88
2023-02-25T21:39:51.701Z,66.95
2023-02-25T21:42:24.189Z,66.89
2023-02-25T21:44:57.837Z,66.89
2023-02-25T21:47:30.150Z,67.05
2023-02-25T21:50:02.538Z,67.05
2023-02-25T21:52:34.950Z,66.99
2023-02-25T21:55:08.998Z,67.03
2023-02-25T21:57:41.265Z,67.08
2023-02-25T22:00:15.714Z,67.13
2023-02-25T22:02:47.950Z,67.15
2023-02-25T22:05:20.432Z,67.15
2023-02-25T22:07:52.696Z,67.18
2023-02-25T22:10:25.090Z,67.26
2023-02-25T22:12:57.453Z,67.30
2023-02-25T22:15:29.844Z,67.30
2023-02-25T22:18:02.126Z,67.33
2023-02-25T22:20:34.516Z,67.40
2023-02-25T22:23:06.748Z,67.36
2023-02-25T22:25:39.104Z,67.39
2023-02-25T22:28:11.776Z,67.49
2023-02-25T22:30:48.759Z,67.47
2023-02-25T22:33:21.120Z,67.49
2023-02-25T22:35:58.982Z,67.55
2023-02-25T22:38:33.355Z,67.54
2023-02-25T22:41:06.695Z,67.52
2023-02-25T22:43:39.087Z,67.60
2023-02-25T22:46:14.062Z,67.65
2023-02-25T22:48:47.926Z,67.71
2023-02-25T22:51:25.434Z,67.75
2023-02-25T22:53:58.492Z,67.65
2023-02-25T22:56:31.071Z,67.60
2023-02-25T22:59:03.485Z,67.85
2023-02-25T23:01:36.281Z,67.83
2023-02-25T23:04:09.142Z,67.77
2023-02-25T23:06:44.258Z,67.75
2023-02-25T23:09:17.654Z,67.84
2023-02-25T23:11:49.943Z,67.78
2023-02-25T23:14:22.236Z,67.70
2023-02-25T23:16:54.585Z,67.84
2023-02-25T23:19:28.280Z,67.61
2023-02-25T23:22:00.907Z,67.52
2023-02-25T23:24:33.287Z,67.55
2023-02-25T23:27:05.679Z,67.39
2023-02-25T23:29:38.074Z,67.55
2023-02-25T23:32:10.806Z,67.47
2023-02-25T23:34:43.182Z,67.72
2023-02-25T23:37:16.130Z,67.58
2023-02-25T23:39:48.708Z,67.50
2023-02-25T23:42:21.088Z,67.67
2023-02-25T23:44:53.472Z,67.58
2023-02-25T23:47:25.940Z,67.51
2023-02-25T23:49:58.394Z,67.52
2023-02-25T23:52:30.807Z,67.43
2023-02-25T23:55:03.150Z,67.57
2023-02-25T23:57:35.603Z,67.61
